Time;durP1;ratioP1;P1;durP2;ratioP2;P2;SDS_P1;SDS_P2;PMS_P1;PMS_P2;Temp;Humidity;BMP_temperature;BMP_pressure;BME280_temperature;BME280_humidity;BME280_pressure;Samples;Min_cycle;Max_cycle;Signal;HPM_P1;HPM_P2
2021/01/24 00:01:04;;;;;;;;;;;;;;;5.13;57.72;98968.81;5053217;28;19919;-56
2021/01/24 00:03:29;;;;;;;;;;;;;;;5.11;57.60;98965.41;5051727;28;19917;-58
2021/01/24 00:05:54;;;;;;;;;;;;;;;5.13;57.48;98966.16;5053416;28;19913;-59
2021/01/24 00:08:22;;;;;;;;;;;;;;;5.14;57.82;98969.66;5053080;28;19917;-59
2021/01/24 00:10:47;;;;;;;;;;;;;;;5.16;57.90;98960.69;5055985;28;19913;-58
2021/01/24 00:13:12;;;;;;;;;;;;;;;5.17;57.63;98959.75;5056928;28;20262;-57
2021/01/24 00:15:37;;;;;;;;;;;;;;;5.20;57.95;98959.59;5057249;28;20401;-58
2021/01/24 00:18:02;;;;;;;;;;;;;;;5.21;57.73;98956.00;5056959;28;19919;-58
2021/01/24 00:20:28;;;;;;;;;;;;;;;5.23;57.72;98958.56;5057431;28;19913;-58
2021/01/24 00:22:53;;;;;;;;;;;;;;;5.23;57.49;98961.19;5056805;28;20293;-58
2021/01/24 00:25:18;;;;;;;;;;;;;;;5.23;57.26;98948.81;5056996;28;20369;-58
2021/01/24 00:27:43;;;;;;;;;;;;;;;5.25;57.75;98952.22;5056898;28;19921;-58
2021/01/24 00:30:09;;;;;;;;;;;;;;;5.28;57.38;98954.69;5056669;28;19913;-58
2021/01/24 00:32:34;;;;;;;;;;;;;;;5.27;57.85;98950.34;5056927;28;19913;-59
2021/01/24 00:34:59;;;;;;;;;;;;;;;5.27;57.13;98955.63;5056648;28;19920;-59
2021/01/24 00:37:24;;;;;;;;;;;;;;;5.28;57.27;98959.97;5056506;28;19920;-59
2021/01/24 00:39:50;;;;;;;;;;;;;;;5.29;57.36;98955.53;5056540;28;19912;-59
2021/01/24 00:42:15;;;;;;;;;;;;;;;5.29;57.66;98958.19;5056471;28;19919;-59
2021/01/24 00:44:40;;;;;;;;;;;;;;;5.30;57.24;98965.16;5056331;28;19920;-57
2021/01/24 00:47:05;;;;;;;;;;;;;;;5.31;57.58;98969.53;5056290;28;19924;-58
2021/01/24 00:49:30;;;;;;;;;;;;;;;5.31;57.58;98972.16;5056527;28;19924;-59
2021/01/24 00:51:56;;;;;;;;;;;;;;;5.29;57.48;98974.91;5056421;28;19978;-58
2021/01/24 00:54:21;;;;;;;;;;;;;;;5.28;57.06;98975.00;5056238;28;19916;-59
2021/01/24 00:56:46;;;;;;;;;;;;;;;5.28;56.97;98977.63;5056201;28;20339;-57
2021/01/24 00:59:11;;;;;;;;;;;;;;;5.27;57.41;98978.59;5056217;28;19913;-59
2021/01/24 01:01:37;;;;;;;;;;;;;;;5.27;57.20;98979.44;5056120;28;19919;-58
2021/01/24 01:04:02;;;;;;;;;;;;;;;5.27;57.44;98979.44;5056127;28;19924;-59
2021/01/24 01:06:27;;;;;;;;;;;;;;;5.26;57.37;98977.72;5056261;28;19936;-59
2021/01/24 01:08:52;;;;;;;;;;;;;;;5.26;57.30;98983.03;5056773;28;20293;-59
2021/01/24 01:11:17;;;;;;;;;;;;;;;5.27;56.98;98979.44;5056113;28;20380;-59
2021/01/24 01:13:42;;;;;;;;;;;;;;;5.27;57.37;98982.09;5056062;28;19921;-58
2021/01/24 01:16:08;;;;;;;;;;;;;;;5.27;57.40;98982.09;5055822;28;19920;-58
2021/01/24 01:18:33;;;;;;;;;;;;;;;5.29;56.94;98979.34;5056072;28;19962;-59
2021/01/24 01:20:58;;;;;;;;;;;;;;;5.29;57.20;98974.91;5055477;28;19966;-58
2021/01/24 01:23:23;;;;;;;;;;;;;;;5.29;57.14;98980.19;5055816;28;19921;-59
2021/01/24 01:25:52;;;;;;;;;;;;;;;5.30;57.07;98979.25;5054975;28;19913;-59
2021/01/24 01:28:18;;;;;;;;;;;;;;;5.30;57.00;98992.47;5054501;28;20285;-58
2021/01/24 01:30:43;;;;;;;;;;;;;;;5.31;56.94;98982.75;5055651;28;19917;-58
2021/01/24 01:33:08;;;;;;;;;;;;;;;5.31;57.07;98983.59;5055581;28;19913;-58
2021/01/24 01:35:33;;;;;;;;;;;;;;;5.31;57.03;98986.25;5055943;28;19917;-59
2021/01/24 01:37:58;;;;;;;;;;;;;;;5.32;57.10;98987.09;5055889;28;19913;-58
2021/01/24 01:40:24;;;;;;;;;;;;;;;5.33;57.06;98986.16;5055735;28;19924;-59
2021/01/24 01:42:49;;;;;;;;;;;;;;;5.34;57.43;98993.13;5055359;28;19962;-59
2021/01/24 01:45:14;;;;;;;;;;;;;;;5.33;57.31;98989.63;5055905;28;19913;-58
2021/01/24 01:47:39;;;;;;;;;;;;;;;5.34;56.96;98993.97;5055121;28;19917;-55
2021/01/24 01:50:05;;;;;;;;;;;;;;;5.36;57.59;98990.41;5054201;28;19913;-59
2021/01/24 01:52:30;;;;;;;;;;;;;;;5.36;57.47;98985.94;5054979;28;19913;-58
2021/01/24 01:54:56;;;;;;;;;;;;;;;5.37;57.16;98990.31;5055229;28;19913;-56
2021/01/24 01:57:21;;;;;;;;;;;;;;;5.37;57.47;98973.56;5055121;28;19913;-58
2021/01/24 01:59:46;;;;;;;;;;;;;;;5.36;56.75;98985.94;5055312;28;19913;-58
2021/01/24 02:02:24;;;;;;;;;;;;;;;5.34;56.86;98978.13;5055144;28;19916;-59
2021/01/24 02:04:50;;;;;;;;;;;;;;;5.33;56.91;98968.47;5054905;28;20336;-57
2021/01/24 02:07:23;;;;;;;;;;;;;;;5.32;57.06;98958.84;5055049;28;19924;-58
2021/01/24 02:09:52;;;;;;;;;;;;;;;5.32;57.05;98964.13;5053904;28;19916;-56
2021/01/24 02:12:23;;;;;;;;;;;;;;;5.32;56.56;98964.13;5053802;28;19913;-57
2021/01/24 02:14:51;;;;;;;;;;;;;;;5.31;57.05;98962.44;5053479;28;19912;-58
2021/01/24 02:17:18;;;;;;;;;;;;;;;5.31;57.16;98959.78;5053759;28;19913;-57
2021/01/24 02:19:53;;;;;;;;;;;;;;;5.31;57.21;98965.06;5055131;28;19992;-57
2021/01/24 02:22:19;;;;;;;;;;;;;;;5.30;57.10;98971.31;5053756;28;19920;-59
2021/01/24 02:24:46;;;;;;;;;;;;;;;5.31;56.75;98966.88;5053154;28;19912;-56
2021/01/24 02:27:22;;;;;;;;;;;;;;;5.31;56.94;98978.31;5053368;28;19924;-58
2021/01/24 02:29:51;;;;;;;;;;;;;;;5.30;56.87;98973.97;5053506;28;19920;-56
2021/01/24 02:32:18;;;;;;;;;;;;;;;5.30;56.87;98976.59;5053416;28;20389;-56
2021/01/24 02:34:43;;;;;;;;;;;;;;;5.30;56.98;98976.59;5052095;28;19913;-58
2021/01/24 02:37:08;;;;;;;;;;;;;;;5.28;57.06;98975.84;5053079;28;19913;-59
2021/01/24 02:39:33;;;;;;;;;;;;;;;5.28;57.07;98962.63;5053353;28;19924;-58
2021/01/24 02:41:59;;;;;;;;;;;;;;;5.27;57.53;98975.94;5053417;28;19939;-58
2021/01/24 02:44:24;;;;;;;;;;;;;;;5.27;56.90;98966.22;5054144;28;19962;-58
2021/01/24 02:46:49;;;;;;;;;;;;;;;5.26;57.22;98976.88;5036185;28;19924;-58
2021/01/24 02:49:14;;;;;;;;;;;;;;;5.25;57.24;98983.97;5052756;28;19920;-57
2021/01/24 02:51:40;;;;;;;;;;;;;;;5.23;57.40;98977.94;5052896;28;19919;-58
2021/01/24 02:54:05;;;;;;;;;;;;;;;5.24;57.08;98976.97;5052884;28;19919;-56
2021/01/24 02:56:30;;;;;;;;;;;;;;;5.25;57.12;98973.38;5053188;28;19978;-58
2021/01/24 02:58:56;;;;;;;;;;;;;;;5.26;57.16;98975.09;5054001;28;19912;-58
2021/01/24 03:01:21;;;;;;;;;;;;;;;5.24;57.33;98969.03;5053370;28;19912;-57
2021/01/24 03:03:46;;;;;;;;;;;;;;;5.26;57.65;98971.59;5052719;28;19916;-57
2021/01/24 03:06:12;;;;;;;;;;;;;;;5.25;57.35;98972.53;5054120;28;20292;-57
2021/01/24 03:08:37;;;;;;;;;;;;;;;5.24;57.30;98976.97;5053729;28;20377;-59
2021/01/24 03:11:03;;;;;;;;;;;;;;;5.24;57.50;98971.69;5053864;28;19912;-55
2021/01/24 03:13:38;;;;;;;;;;;;;;;5.24;57.19;98984.91;5052635;28;19913;-59
2021/01/24 03:16:03;;;;;;;;;;;;;;;5.23;57.47;98972.63;5054308;28;19913;-59
2021/01/24 03:18:28;;;;;;;;;;;;;;;5.23;57.43;98985.84;5052381;28;19913;-57
2021/01/24 03:20:54;;;;;;;;;;;;;;;5.23;57.72;98972.63;5053673;28;19917;-59
2021/01/24 03:23:19;;;;;;;;;;;;;;;5.23;57.59;98974.44;5053816;28;20331;-59
2021/01/24 03:25:45;;;;;;;;;;;;;;;5.23;57.37;98970.00;5053782;28;20299;-58
2021/01/24 03:28:10;;;;;;;;;;;;;;;5.22;57.23;98970.94;5052327;28;19967;-57
2021/01/24 03:30:35;;;;;;;;;;;;;;;5.23;57.14;98967.34;5052441;28;19913;-59
2021/01/24 03:33:01;;;;;;;;;;;;;;;5.22;57.28;98951.56;5053579;28;19913;-59
2021/01/24 03:35:26;;;;;;;;;;;;;;;5.23;57.61;98963.84;5052323;28;19913;-57
2021/01/24 03:37:51;;;;;;;;;;;;;;;5.25;57.76;98969.91;5052367;28;19920;-56
2021/01/24 03:40:16;;;;;;;;;;;;;;;5.22;57.49;98955.06;5053872;28;20292;-55
2021/01/24 03:42:41;;;;;;;;;;;;;;;5.22;57.68;98955.06;5053532;28;20387;-56
2021/01/24 03:45:07;;;;;;;;;;;;;;;5.22;57.74;98963.00;5055042;28;19920;-55
2021/01/24 03:47:32;;;;;;;;;;;;;;;5.23;57.74;98959.41;5057454;28;19924;-55
2021/01/24 03:49:57;;;;;;;;;;;;;;;5.24;57.76;98944.38;5057975;28;19913;-56
2021/01/24 03:52:22;;;;;;;;;;;;;;;5.24;57.46;98950.53;5057422;28;19916;-54
2021/01/24 03:54:48;;;;;;;;;;;;;;;5.25;57.47;98951.38;5057880;28;19917;-54
2021/01/24 03:57:13;;;;;;;;;;;;;;;5.25;57.57;98952.22;5057335;28;20332;-56
2021/01/24 03:59:38;;;;;;;;;;;;;;;5.26;57.83;98948.63;5057305;28;20388;-55
2021/01/24 04:02:03;;;;;;;;;;;;;;;5.27;57.49;98944.19;5057510;28;19916;-57
2021/01/24 04:04:28;;;;;;;;;;;;;;;5.26;57.78;98942.50;5058940;28;19917;-56
2021/01/24 04:06:54;;;;;;;;;;;;;;;5.24;57.66;98942.59;5057561;28;19929;-58
2021/01/24 04:09:19;;;;;;;;;;;;;;;5.24;57.57;98939.09;5057232;28;19920;-56
2021/01/24 04:11:44;;;;;;;;;;;;;;;5.25;57.49;98946.09;5057594;28;19920;-58
2021/01/24 04:14:09;;;;;;;;;;;;;;;5.24;58.06;98949.69;5057521;28;19919;-57
2021/01/24 04:16:34;;;;;;;;;;;;;;;5.23;57.97;98946.19;5057289;28;19936;-55
2021/01/24 04:18:59;;;;;;;;;;;;;;;5.23;57.65;98935.59;5056960;28;20343;-58
2021/01/24 04:21:25;;;;;;;;;;;;;;;5.24;57.68;98950.53;5056980;28;19939;-55
2021/01/24 04:23:50;;;;;;;;;;;;;;;5.24;58.08;98947.88;5057068;28;19966;-57
2021/01/24 04:26:15;;;;;;;;;;;;;;;5.24;57.77;98950.53;5057058;28;19966;-56
2021/01/24 04:28:40;;;;;;;;;;;;;;;5.24;57.62;98947.88;5056981;28;19917;-55
2021/01/24 04:31:05;;;;;;;;;;;;;;;5.24;58.05;98945.25;5055419;28;19966;-58
2021/01/24 04:33:31;;;;;;;;;;;;;;;5.24;57.51;98939.94;5056882;28;19920;-58
2021/01/24 04:35:56;;;;;;;;;;;;;;;5.25;57.53;98946.94;5056994;28;19913;-57
2021/01/24 04:38:21;;;;;;;;;;;;;;;5.25;57.49;98951.38;5056661;28;19913;-55
2021/01/24 04:40:46;;;;;;;;;;;;;;;5.24;57.57;98945.25;5056601;28;19913;-59
2021/01/24 04:43:12;;;;;;;;;;;;;;;5.25;57.88;98946.09;5056645;28;19916;-58
2021/01/24 04:45:37;;;;;;;;;;;;;;;5.25;57.63;98946.09;5056486;28;19912;-58
2021/01/24 04:48:02;;;;;;;;;;;;;;;5.26;57.84;98942.50;5056342;28;19916;-59
2021/01/24 04:50:27;;;;;;;;;;;;;;;5.27;58.02;98941.56;5055094;28;19940;-55
2021/01/24 04:52:53;;;;;;;;;;;;;;;5.27;57.67;98947.69;5056264;28;19913;-58
2021/01/24 04:55:18;;;;;;;;;;;;;;;5.27;58.28;98947.69;5056526;28;19913;-58
2021/01/24 04:57:43;;;;;;;;;;;;;;;5.29;58.07;98939.66;5054202;28;20348;-59
2021/01/24 05:00:08;;;;;;;;;;;;;;;5.30;57.86;98950.16;5054948;28;20439;-58
2021/01/24 05:02:34;;;;;;;;;;;;;;;5.30;57.71;98944.84;5056242;28;19983;-59
2021/01/24 05:04:59;;;;;;;;;;;;;;;5.30;57.84;98944.84;5078385;22;20359;-62
2021/01/24 05:07:25;;;;;;;;;;;;;;;5.30;57.75;98950.16;5055215;28;19955;-61
2021/01/24 05:09:50;;;;;;;;;;;;;;;5.31;57.47;98945.72;5054980;28;19913;-62
2021/01/24 05:12:16;;;;;;;;;;;;;;;5.31;57.48;98940.41;5056061;28;20269;-62
2021/01/24 05:14:41;;;;;;;;;;;;;;;5.30;57.97;98939.56;5054870;28;19913;-63
2021/01/24 05:17:06;;;;;;;;;;;;;;;5.30;57.69;98929.00;5056024;28;19966;-63
2021/01/24 05:19:32;;;;;;;;;;;;;;;5.31;57.97;98932.47;5054841;28;19955;-63
2021/01/24 05:21:57;;;;;;;;;;;;;;;5.31;57.68;98930.69;5038137;28;19913;-63
2021/01/24 05:24:22;;;;;;;;;;;;;;;5.32;57.93;98928.88;5038033;28;19913;-63
2021/01/24 05:26:48;;;;;;;;;;;;;;;5.31;57.76;98928.03;5055680;28;20300;-63
2021/01/24 05:29:23;;;;;;;;;;;;;;;5.32;58.07;98934.19;5054665;28;20392;-63
2021/01/24 05:31:48;;;;;;;;;;;;;;;5.32;57.73;98931.53;5056221;28;19913;-63
2021/01/24 05:34:15;;;;;;;;;;;;;;;5.32;57.73;98940.31;5037786;28;20403;-62
2021/01/24 05:36:41;;;;;;;;;;;;;;;5.33;57.70;98938.53;5037860;28;19932;-63
2021/01/24 05:39:06;;;;;;;;;;;;;;;5.33;57.98;98936.72;5054438;28;20007;-63
2021/01/24 05:41:31;;;;;;;;;;;;;;;5.34;58.39;98941.06;5054216;28;20436;-61
2021/01/24 05:43:56;;;;;;;;;;;;;;;5.36;58.24;98942.78;5054181;28;19925;-64
2021/01/24 05:46:22;;;;;;;;;;;;;;;5.34;58.25;98946.38;5055741;28;19913;-63
2021/01/24 05:48:48;;;;;;;;;;;;;;;5.36;57.68;98946.28;5037757;28;19917;-63
2021/01/24 05:51:13;;;;;;;;;;;;;;;5.37;57.50;98955.06;5054279;28;19988;-63
2021/01/24 05:53:40;;;;;;;;;;;;;;;5.37;57.48;98949.75;5054065;28;20356;-63
2021/01/24 05:56:09;;;;;;;;;;;;;;;5.36;57.68;98946.28;5054034;28;19913;-63
2021/01/24 05:58:34;;;;;;;;;;;;;;;5.37;57.78;98950.63;5053904;28;20313;-63
2021/01/24 06:00:59;;;;;;;;;;;;;;;5.37;58.27;98952.41;5037224;28;19912;-63
2021/01/24 06:03:25;;;;;;;;;;;;;;;5.37;57.71;98949.75;5053832;28;19917;-61
2021/01/24 06:05:50;;;;;;;;;;;;;;;5.35;58.12;98949.88;5054316;28;19913;-63
2021/01/24 06:08:15;;;;;;;;;;;;;;;5.36;57.71;98953.34;5053817;28;19917;-63
2021/01/24 06:10:40;;;;;;;;;;;;;;;5.37;57.67;98953.25;5054948;28;19920;-63
2021/01/24 06:13:06;;;;;;;;;;;;;;;5.36;57.81;98959.50;5036986;28;19913;-63
2021/01/24 06:15:31;;;;;;;;;;;;;;;5.38;57.68;98964.69;5053634;28;19916;-63
2021/01/24 06:17:57;;;;;;;;;;;;;;;5.37;58.35;98970.94;5053603;28;19917;-61
2021/01/24 06:20:23;;;;;;;;;;;;;;;5.36;57.65;98963.94;5053510;28;19913;-62
2021/01/24 06:22:49;;;;;;;;;;;;;;;5.34;58.18;98966.69;5037011;28;19944;-63
2021/01/24 06:25:20;;;;;;;;;;;;;;;5.34;57.55;98967.53;5054675;28;19916;-63
2021/01/24 06:27:56;;;;;;;;;;;;;;;5.34;58.04;98962.25;5053397;28;20335;-63
2021/01/24 06:30:22;;;;;;;;;;;;;;;5.33;58.38;98962.34;5053749;28;19912;-63
2021/01/24 06:32:47;;;;;;;;;;;;;;;5.32;58.26;98974.72;5036778;28;19923;-62
2021/01/24 06:35:15;;;;;;;;;;;;;;;5.33;57.54;98975.56;5036705;28;20329;-62
2021/01/24 06:37:50;;;;;;;;;;;;;;;5.32;58.36;98987.94;5054689;28;19939;-63
2021/01/24 06:40:22;;;;;;;;;;;;;;;5.31;58.33;98977.44;5053354;28;19913;-63
2021/01/24 06:42:48;;;;;;;;;;;;;;;5.30;58.06;98984.53;5053428;28;19962;-63
2021/01/24 06:45:25;;;;;;;;;;;;;;;5.29;57.70;98982.84;5053202;28;19923;-62
2021/01/24 06:47:51;;;;;;;;;;;;;;;5.29;57.51;98974.06;5054467;28;19924;-63
2021/01/24 06:50:35;;;;;;;;;;;;;;;5.29;58.09;98987.28;5053351;28;20312;-63
2021/01/24 06:53:03;;;;;;;;;;;;;;;5.28;57.86;98975.84;5052900;28;19919;-64
2021/01/24 06:55:28;;;;;;;;;;;;;;;5.28;57.63;98983.78;5054099;28;19913;-62
2021/01/24 06:57:53;;;;;;;;;;;;;;;5.29;57.83;98989.91;5036291;28;19982;-62
2021/01/24 07:00:20;;;;;;;;;;;;;;;5.29;57.94;98988.13;5053267;28;19912;-63
2021/01/24 07:02:45;;;;;;;;;;;;;;;5.30;58.24;98991.63;5053087;28;19913;-63
2021/01/24 07:05:11;;;;;;;;;;;;;;;5.30;57.91;98992.47;5052824;28;20034;-63
2021/01/24 07:07:37;;;;;;;;;;;;;;;5.30;58.04;98992.47;5052854;28;20061;-64
2021/01/24 07:10:03;;;;;;;;;;;;;;;5.32;58.54;98987.94;5052875;28;19913;-63
2021/01/24 07:12:32;;;;;;;;;;;;;;;5.34;57.99;98995.78;5052828;28;19913;-62
2021/01/24 07:14:57;;;;;;;;;;;;;;;5.34;58.30;99001.94;5053686;28;19917;-63
2021/01/24 07:17:23;;;;;;;;;;;;;;;5.36;58.45;98995.69;5035833;28;19913;-63
2021/01/24 07:19:49;;;;;;;;;;;;;;;5.36;58.42;98993.91;5051913;28;19919;-63
2021/01/24 07:22:15;;;;;;;;;;;;;;;5.37;57.90;98995.59;5052500;28;20098;-63
2021/01/24 07:24:41;;;;;;;;;;;;;;;5.39;58.47;98996.34;5052297;28;19917;-63
2021/01/24 07:27:07;;;;;;;;;;;;;;;5.40;58.18;98995.41;5035652;28;20019;-63
2021/01/24 07:29:33;;;;;;;;;;;;;;;5.42;57.71;99000.59;5035662;28;20007;-63
2021/01/24 07:31:58;;;;;;;;;;;;;;;5.44;57.87;99004.00;5053481;28;20003;-63
2021/01/24 07:34:23;;;;;;;;;;;;;;;5.45;58.18;99013.66;5052463;28;19935;-63
2021/01/24 07:36:49;;;;;;;;;;;;;;;5.46;58.46;98999.47;5052255;28;19967;-63
2021/01/24 07:39:14;;;;;;;;;;;;;;;5.48;58.13;99002.88;5052192;28;19959;-63
2021/01/24 07:41:39;;;;;;;;;;;;;;;5.51;58.26;99005.31;5052484;28;19913;-62
2021/01/24 07:44:05;;;;;;;;;;;;;;;5.53;57.75;98992.84;5052153;28;19913;-63
2021/01/24 07:46:30;;;;;;;;;;;;;;;5.55;57.65;98997.09;5054592;28;19919;-63
2021/01/24 07:48:55;;;;;;;;;;;;;;;5.58;58.00;99002.25;5052188;28;19917;-63
2021/01/24 07:51:20;;;;;;;;;;;;;;;5.60;58.35;99000.34;5052024;28;19924;-63
2021/01/24 07:53:46;;;;;;;;;;;;;;;5.63;57.61;98996.66;5053232;28;20297;-63
2021/01/24 07:56:11;;;;;;;;;;;;;;;5.66;58.11;98993.81;5052070;28;19959;-63
2021/01/24 07:58:36;;;;;;;;;;;;;;;5.69;57.36;99004.22;5052906;28;20381;-63
2021/01/24 08:01:02;;;;;;;;;;;;;;;5.71;57.93;99002.31;5052005;28;19921;-63
2021/01/24 08:03:29;;;;;;;;;;;;;;;5.74;57.75;98998.63;5051911;28;19975;-63
2021/01/24 08:05:54;;;;;;;;;;;;;;;5.77;57.03;99003.72;5053202;28;20351;-63
2021/01/24 08:08:20;;;;;;;;;;;;;;;5.82;57.26;98999.84;5052312;28;20024;-63
2021/01/24 08:10:45;;;;;;;;;;;;;;;5.83;57.51;98993.59;5051857;28;20007;-63
2021/01/24 08:13:10;;;;;;;;;;;;;;;5.86;57.54;98993.41;5053127;28;19982;-63
2021/01/24 08:15:35;;;;;;;;;;;;;;;5.90;57.26;98997.59;5035222;28;20380;-63
2021/01/24 08:18:01;;;;;;;;;;;;;;;5.93;56.61;98986.81;5053074;28;19964;-63
2021/01/24 08:20:28;;;;;;;;;;;;;;;5.97;56.74;98990.16;5053319;28;19967;-63
2021/01/24 08:22:53;;;;;;;;;;;;;;;6.00;56.86;98989.94;5051761;28;20392;-63
2021/01/24 08:25:18;;;;;;;;;;;;;;;6.03;56.69;98997.69;5051719;28;19960;-63
2021/01/24 08:27:44;;;;;;;;;;;;;;;6.05;56.30;98995.81;5051832;28;20009;-63
2021/01/24 08:30:09;;;;;;;;;;;;;;;6.09;56.24;99007.03;5051767;28;19951;-62
2021/01/24 08:32:37;;;;;;;;;;;;;;;6.11;56.77;98999.84;5055484;28;19913;-63
2021/01/24 08:35:02;;;;;;;;;;;;;;;6.15;56.28;99001.34;5038662;28;19920;-63
2021/01/24 08:37:28;;;;;;;;;;;;;;;6.16;56.17;99000.41;5056645;28;19913;-62
2021/01/24 08:39:53;;;;;;;;;;;;;;;6.19;56.06;99008.16;5055740;28;19939;-63
2021/01/24 08:42:19;;;;;;;;;;;;;;;6.20;55.85;99010.69;5055360;28;19955;-63
2021/01/24 08:44:57;;;;;;;;;;;;;;;6.21;56.08;99012.41;5055302;28;19936;-62
2021/01/24 08:47:22;;;;;;;;;;;;;;;6.22;55.80;99005.31;5055169;28;19917;-63
2021/01/24 08:49:47;;;;;;;;;;;;;;;6.23;55.95;99015.81;5056755;28;19936;-63
2021/01/24 08:52:19;;;;;;;;;;;;;;;6.25;55.82;99011.25;5056342;28;20300;-63
2021/01/24 08:54:44;;;;;;;;;;;;;;;6.30;55.65;99016.25;5055113;28;19920;-63
2021/01/24 08:57:13;;;;;;;;;;;;;;;6.30;55.79;99018.91;5055245;28;19913;-63
2021/01/24 08:59:39;;;;;;;;;;;;;;;6.32;56.03;99013.50;5055021;28;19913;-63
2021/01/24 09:02:05;;;;;;;;;;;;;;;6.33;55.55;99015.25;5054579;28;19912;-63
2021/01/24 09:04:31;;;;;;;;;;;;;;;6.34;55.74;99017.78;5055711;28;20270;-62
2021/01/24 09:06:59;;;;;;;;;;;;;;;6.37;55.60;99016.75;5054807;28;20384;-63
2021/01/24 09:09:27;;;;;;;;;;;;;;;6.38;55.61;99014.00;5056005;28;19913;-62
2021/01/24 09:11:53;;;;;;;;;;;;;;;6.41;55.81;99018.25;5054850;28;19943;-63
2021/01/24 09:14:18;;;;;;;;;;;;;;;6.42;55.84;99018.13;5054724;28;19913;-63
2021/01/24 09:16:43;;;;;;;;;;;;;;;6.42;55.27;99019.94;5054801;28;20293;-63
2021/01/24 09:19:08;;;;;;;;;;;;;;;6.43;55.36;99014.53;5054681;28;20384;-63
2021/01/24 09:21:33;;;;;;;;;;;;;;;6.43;55.20;99021.63;5055740;28;19913;-63
2021/01/24 09:23:59;;;;;;;;;;;;;;;6.45;55.46;99025.88;5055922;28;19913;-63
2021/01/24 09:26:24;;;;;;;;;;;;;;;6.45;55.54;99020.59;5054253;28;19916;-63
2021/01/24 09:28:49;;;;;;;;;;;;;;;6.49;55.63;99029.19;5054453;28;19920;-63
2021/01/24 09:31:14;;;;;;;;;;;;;;;6.52;55.41;99027.19;5055634;28;19913;-63
2021/01/24 09:33:40;;;;;;;;;;;;;;;6.56;55.29;99026.03;5055766;28;19912;-63
2021/01/24 09:36:05;;;;;;;;;;;;;;;6.62;55.08;99034.53;5037596;28;19989;-63
2021/01/24 09:38:30;;;;;;;;;;;;;;;6.65;55.04;99034.34;5055747;28;20007;-63
2021/01/24 09:40:55;;;;;;;;;;;;;;;6.68;55.18;99026.19;5055145;28;19916;-63
2021/01/24 09:43:21;;;;;;;;;;;;;;;6.71;54.93;99029.50;5054866;28;20331;-63
2021/01/24 09:45:47;;;;;;;;;;;;;;;6.74;55.55;99024.00;5054051;28;20369;-62
2021/01/24 09:48:12;;;;;;;;;;;;;;;6.78;54.76;99035.25;5054014;28;19917;-63
2021/01/24 09:50:37;;;;;;;;;;;;;;;6.82;55.18;99034.94;5053959;28;20312;-63
2021/01/24 09:53:03;;;;;;;;;;;;;;;6.84;54.86;99033.03;5055003;28;20407;-63
2021/01/24 09:55:28;;;;;;;;;;;;;;;6.88;54.61;99034.53;5054009;28;19920;-62
2021/01/24 09:57:53;;;;;;;;;;;;;;;6.91;55.16;99025.53;5054069;28;19962;-63
2021/01/24 10:00:18;;;;;;;;;;;;;;;6.93;54.70;99026.28;5055367;28;19939;-63
2021/01/24 10:02:44;;;;;;;;;;;;;;;6.95;55.30;99027.00;5055158;28;19913;-63
2021/01/24 10:05:09;;;;;;;;;;;;;;;6.96;55.20;99028.72;5054853;28;19917;-64
2021/01/24 10:07:34;;;;;;;;;;;;;;;6.98;55.25;99032.13;5054884;28;19921;-60
2021/01/24 10:09:59;;;;;;;;;;;;;;;7.00;54.41;99032.88;5053694;28;19948;-63
2021/01/24 10:12:25;;;;;;;;;;;;;;;7.03;55.02;99034.47;5054037;28;19913;-63
2021/01/24 10:14:50;;;;;;;;;;;;;;;7.04;55.05;99031.69;5053422;28;20326;-62
2021/01/24 10:17:15;;;;;;;;;;;;;;;7.05;55.00;99036.06;5053749;28;20373;-62
2021/01/24 10:19:41;;;;;;;;;;;;;;;7.05;54.94;99033.41;5053571;28;19913;-62
2021/01/24 10:22:06;;;;;;;;;;;;;;;7.03;54.35;99027.34;5054805;28;20011;-63
2021/01/24 10:24:31;;;;;;;;;;;;;;;7.02;54.48;99035.41;5053407;28;19996;-62
2021/01/24 10:26:57;;;;;;;;;;;;;;;7.00;54.49;99032.88;5054742;28;19968;-63
2021/01/24 10:29:22;;;;;;;;;;;;;;;6.99;55.10;99031.16;5053844;28;19963;-63
2021/01/24 10:31:47;;;;;;;;;;;;;;;6.98;55.18;99032.13;5053343;28;19946;-63
2021/01/24 10:34:12;;;;;;;;;;;;;;;6.97;55.29;99035.72;5054362;28;19939;-62
2021/01/24 10:36:38;;;;;;;;;;;;;;;6.97;54.71;99035.72;5053421;28;19912;-62
2021/01/24 10:39:03;;;;;;;;;;;;;;;6.98;54.94;99040.06;5053133;28;19962;-63
2021/01/24 10:41:28;;;;;;;;;;;;;;;6.97;55.25;99041.03;5052990;28;19913;-64
2021/01/24 10:43:53;;;;;;;;;;;;;;;7.01;54.73;99034.56;5053269;28;20000;-63
2021/01/24 10:46:18;;;;;;;;;;;;;;;7.03;55.41;99037.97;5053460;28;19913;-63
2021/01/24 10:48:44;;;;;;;;;;;;;;;7.06;55.38;99032.47;5054237;28;19917;-63
2021/01/24 10:51:09;;;;;;;;;;;;;;;7.11;55.29;99040.97;5052617;28;19913;-63
2021/01/24 10:53:35;;;;;;;;;;;;;;;7.15;55.18;99037.16;5052486;28;19943;-63
2021/01/24 10:56:00;;;;;;;;;;;;;;;7.19;55.25;99036.00;5052231;28;20423;-62
2021/01/24 10:58:25;;;;;;;;;;;;;;;7.24;54.53;99034.84;5036220;28;19917;-63
2021/01/24 11:00:50;;;;;;;;;;;;;;;7.29;54.66;99036.22;5052768;28;19928;-63
2021/01/24 11:03:22;;;;;;;;;;;;;;;7.35;54.40;99032.28;5053143;28;19940;-59
2021/01/24 11:05:47;;;;;;;;;;;;;;;7.40;54.18;99038.97;5053958;28;20365;-63
2021/01/24 11:08:12;;;;;;;;;;;;;;;7.48;54.82;99035.84;5053772;28;19952;-63
2021/01/24 11:10:38;;;;;;;;;;;;;;;7.55;54.50;99037.09;5053248;28;20292;-63
2021/01/24 11:13:03;;;;;;;;;;;;;;;7.63;54.31;99034.75;5052544;28;20396;-61
2021/01/24 11:15:30;;;;;;;;;;;;;;;7.70;53.83;99037.84;5053776;28;19920;-62
2021/01/24 11:17:56;;;;;;;;;;;;;;;7.79;53.96;99035.38;5052506;28;20304;-63
2021/01/24 11:20:21;;;;;;;;;;;;;;;7.88;53.71;99035.72;5053794;28;19920;-63
2021/01/24 11:22:46;;;;;;;;;;;;;;;7.94;53.67;99037.94;5053581;28;20296;-63
2021/01/24 11:25:12;;;;;;;;;;;;;;;8.00;53.12;99037.50;5053423;28;20373;-61
2021/01/24 11:27:37;;;;;;;;;;;;;;;8.06;53.08;99042.38;5053404;28;19921;-63
2021/01/24 11:30:04;;;;;;;;;;;;;;;8.12;52.93;99040.13;5053495;28;19959;-63
2021/01/24 11:32:29;;;;;;;;;;;;;;;8.15;53.24;99034.59;5052492;28;19913;-63
2021/01/24 11:34:55;;;;;;;;;;;;;;;8.19;53.05;99040.56;5053833;28;19920;-63
2021/01/24 11:37:20;;;;;;;;;;;;;;;8.19;52.65;99040.56;5053381;28;19920;-63
2021/01/24 11:39:45;;;;;;;;;;;;;;;8.18;52.67;99043.31;5052229;28;19913;-62
2021/01/24 11:42:10;;;;;;;;;;;;;;;8.12;52.91;99036.63;5053369;28;19912;-63
2021/01/24 11:44:35;;;;;;;;;;;;;;;8.03;52.87;99035.47;5035481;28;19913;-62
2021/01/24 11:47:01;;;;;;;;;;;;;;;7.94;53.27;99040.59;5051999;28;19917;-63
2021/01/24 11:49:26;;;;;;;;;;;;;;;7.84;53.28;99046.56;5052912;28;19920;-63
2021/01/24 11:51:51;;;;;;;;;;;;;;;7.78;53.58;99052.28;5053271;28;20308;-63
2021/01/24 11:54:16;;;;;;;;;;;;;;;7.69;53.85;99042.31;5035423;28;20384;-63
2021/01/24 11:56:41;;;;;;;;;;;;;;;7.63;53.80;99040.06;5053975;28;20393;-63
2021/01/24 11:59:07;;;;;;;;;;;;;;;7.58;53.79;99034.22;5053185;28;19917;-63
2021/01/24 12:01:32;;;;;;;;;;;;;;;7.54;54.40;99043.38;5052041;28;19916;-63
2021/01/24 12:03:59;;;;;;;;;;;;;;;7.50;54.18;99041.88;5035134;28;20305;-63
2021/01/24 12:06:24;;;;;;;;;;;;;;;7.47;54.29;99034.13;5054012;28;19912;-63
2021/01/24 12:08:49;;;;;;;;;;;;;;;7.43;54.47;99036.16;5057075;28;19924;-63
2021/01/24 12:11:14;;;;;;;;;;;;;;;7.41;54.65;99040.69;5056149;28;19943;-63
2021/01/24 12:13:40;;;;;;;;;;;;;;;7.39;55.02;99034.63;5056995;28;19920;-63
2021/01/24 12:16:05;;;;;;;;;;;;;;;7.38;54.71;99038.25;5056984;28;19920;-62
2021/01/24 12:18:30;;;;;;;;;;;;;;;7.36;54.86;99034.84;5057065;28;19912;-63
2021/01/24 12:20:55;;;;;;;;;;;;;;;7.33;54.89;99040.34;5056946;28;19913;-63
2021/01/24 12:23:22;;;;;;;;;;;;;;;7.32;55.49;99043.13;5056770;28;19913;-62
2021/01/24 12:25:47;;;;;;;;;;;;;;;7.29;55.12;99032.72;5056696;28;20380;-63
2021/01/24 12:28:13;;;;;;;;;;;;;;;7.28;55.56;99031.88;5056621;28;19924;-62
2021/01/24 12:30:38;;;;;;;;;;;;;;;7.28;55.21;99033.66;5055758;28;20054;-63
2021/01/24 12:33:03;;;;;;;;;;;;;;;7.31;55.70;99036.13;5056515;28;19974;-63
2021/01/24 12:35:29;;;;;;;;;;;;;;;7.34;55.81;99031.44;5056507;28;19971;-63
2021/01/24 12:37:54;;;;;;;;;;;;;;;7.41;55.75;99034.53;5056600;28;19983;-61
2021/01/24 12:40:19;;;;;;;;;;;;;;;7.43;55.35;99025.53;5055535;28;19913;-63
2021/01/24 12:42:44;;;;;;;;;;;;;;;7.49;55.69;99032.22;5055213;28;19920;-63
2021/01/24 12:45:10;;;;;;;;;;;;;;;7.51;55.50;99025.00;5055410;28;19938;-63
2021/01/24 12:47:35;;;;;;;;;;;;;;;7.55;55.23;99022.97;5054960;28;19917;-62
2021/01/24 12:50:00;;;;;;;;;;;;;;;7.57;55.64;99035.19;5054961;28;19912;-63